sensor_id;sensor_type;location;lat;lon;timestamp;P1;durP1;ratioP1;P2;durP2;ratioP2
13820;SDS011;6981;42.678;23.294;2022-09-09T00:10:31;13.63;;;10.27;;
13820;SDS011;6981;42.678;23.294;2022-09-09T00:13:15;13.50;;;10.37;;
13820;SDS011;6981;42.678;23.294;2022-09-09T00:16:19;10.90;;;9.77;;
13820;SDS011;6981;42.678;23.294;2022-09-09T00:18:57;12.83;;;10.60;;
13820;SDS011;6981;42.678;23.294;2022-09-09T00:24:57;12.90;;;11.60;;
13820;SDS011;6981;42.678;23.294;2022-09-09T00:40:11;15.00;;;11.90;;
13820;SDS011;6981;42.678;23.294;2022-09-09T00:43:14;17.83;;;12.13;;
13820;SDS011;6981;42.678;23.294;2022-09-09T00:49:32;13.07;;;11.50;;
13820;SDS011;6981;42.678;23.294;2022-09-09T00:55:45;16.50;;;12.30;;
13820;SDS011;6981;42.678;23.294;2022-09-09T00:58:30;14.53;;;11.57;;
13820;SDS011;6981;42.678;23.294;2022-09-09T01:01:13;13.30;;;11.03;;
13820;SDS011;6981;42.678;23.294;2022-09-09T01:03:56;13.77;;;11.80;;
13820;SDS011;6981;42.678;23.294;2022-09-09T01:06:37;13.07;;;11.73;;
13820;SDS011;6981;42.678;23.294;2022-09-09T01:09:29;13.20;;;10.80;;
13820;SDS011;6981;42.678;23.294;2022-09-09T01:12:15;13.30;;;11.90;;
13820;SDS011;6981;42.678;23.294;2022-09-09T01:15:01;11.70;;;10.60;;
13820;SDS011;6981;42.678;23.294;2022-09-09T01:18:03;11.73;;;10.63;;
13820;SDS011;6981;42.678;23.294;2022-09-09T01:20:44;13.20;;;10.90;;
13820;SDS011;6981;42.678;23.294;2022-09-09T01:23:38;11.47;;;10.20;;
13820;SDS011;6981;42.678;23.294;2022-09-09T01:29:35;12.73;;;11.37;;
13820;SDS011;6981;42.678;23.294;2022-09-09T01:32:38;12.47;;;11.10;;
13820;SDS011;6981;42.678;23.294;2022-09-09T01:58:57;17.60;;;12.13;;
13820;SDS011;6981;42.678;23.294;2022-09-09T02:01:57;12.57;;;11.30;;
13820;SDS011;6981;42.678;23.294;2022-09-09T02:04:47;14.37;;;11.13;;
13820;SDS011;6981;42.678;23.294;2022-09-09T02:07:21;13.33;;;11.20;;
13820;SDS011;6981;42.678;23.294;2022-09-09T02:10:09;11.57;;;10.37;;
13820;SDS011;6981;42.678;23.294;2022-09-09T02:13:00;13.53;;;10.50;;
13820;SDS011;6981;42.678;23.294;2022-09-09T02:15:40;13.17;;;10.90;;
13820;SDS011;6981;42.678;23.294;2022-09-09T02:18:25;12.73;;;11.20;;
13820;SDS011;6981;42.678;23.294;2022-09-09T02:20:56;13.77;;;12.23;;
13820;SDS011;6981;42.678;23.294;2022-09-09T02:23:45;13.87;;;11.20;;
13820;SDS011;6981;42.678;23.294;2022-09-09T02:26:30;15.90;;;11.60;;
13820;SDS011;6981;42.678;23.294;2022-09-09T02:29:18;13.93;;;11.27;;
13820;SDS011;6981;42.678;23.294;2022-09-09T02:32:01;12.90;;;11.60;;
13820;SDS011;6981;42.678;23.294;2022-09-09T02:34:39;15.47;;;12.87;;
13820;SDS011;6981;42.678;23.294;2022-09-09T02:37:24;13.20;;;10.73;;
13820;SDS011;6981;42.678;23.294;2022-09-09T02:40:00;12.47;;;10.90;;
13820;SDS011;6981;42.678;23.294;2022-09-09T02:45:31;15.90;;;12.13;;
13820;SDS011;6981;42.678;23.294;2022-09-09T02:48:26;15.00;;;11.93;;
13820;SDS011;6981;42.678;23.294;2022-09-09T02:51:18;16.70;;;12.77;;
13820;SDS011;6981;42.678;23.294;2022-09-09T02:54:13;20.23;;;12.43;;
13820;SDS011;6981;42.678;23.294;2022-09-09T02:57:04;16.27;;;12.87;;
13820;SDS011;6981;42.678;23.294;2022-09-09T02:59:39;17.47;;;12.13;;
13820;SDS011;6981;42.678;23.294;2022-09-09T03:02:21;17.03;;;12.23;;
13820;SDS011;6981;42.678;23.294;2022-09-09T03:08:09;15.80;;;12.17;;
13820;SDS011;6981;42.678;23.294;2022-09-09T03:10:52;14.03;;;11.57;;
13820;SDS011;6981;42.678;23.294;2022-09-09T03:16:40;15.47;;;11.73;;
13820;SDS011;6981;42.678;23.294;2022-09-09T03:19:23;14.03;;;12.60;;
13820;SDS011;6981;42.678;23.294;2022-09-09T03:21:55;16.13;;;12.70;;
13820;SDS011;6981;42.678;23.294;2022-09-09T03:24:34;16.40;;;12.87;;
13820;SDS011;6981;42.678;23.294;2022-09-09T03:27:15;14.30;;;12.80;;
13820;SDS011;6981;42.678;23.294;2022-09-09T03:29:46;15.17;;;13.60;;
13820;SDS011;6981;42.678;23.294;2022-09-09T03:32:26;16.43;;;12.40;;
13820;SDS011;6981;42.678;23.294;2022-09-09T03:35:01;14.27;;;12.70;;
13820;SDS011;6981;42.678;23.294;2022-09-09T03:37:46;13.30;;;11.90;;
13820;SDS011;6981;42.678;23.294;2022-09-09T03:40:32;18.60;;;12.50;;
13820;SDS011;6981;42.678;23.294;2022-09-09T03:43:15;19.20;;;12.80;;
13820;SDS011;6981;42.678;23.294;2022-09-09T03:45:51;14.80;;;13.27;;
13820;SDS011;6981;42.678;23.294;2022-09-09T03:48:24;14.57;;;12.90;;
13820;SDS011;6981;42.678;23.294;2022-09-09T03:51:06;15.73;;;13.13;;
13820;SDS011;6981;42.678;23.294;2022-09-09T03:59:36;15.40;;;12.80;;
13820;SDS011;6981;42.678;23.294;2022-09-09T04:02:20;16.37;;;12.83;;
13820;SDS011;6981;42.678;23.294;2022-09-09T04:05:02;15.37;;;13.77;;
13820;SDS011;6981;42.678;23.294;2022-09-09T04:07:46;19.10;;;13.63;;
13820;SDS011;6981;42.678;23.294;2022-09-09T04:10:28;15.17;;;13.57;;
13820;SDS011;6981;42.678;23.294;2022-09-09T04:25:46;19.40;;;13.70;;
13820;SDS011;6981;42.678;23.294;2022-09-09T04:28:34;21.53;;;13.90;;
13820;SDS011;6981;42.678;23.294;2022-09-09T04:31:21;17.53;;;13.27;;
13820;SDS011;6981;42.678;23.294;2022-09-09T04:40:30;18.93;;;14.00;;
13820;SDS011;6981;42.678;23.294;2022-09-09T04:43:17;25.10;;;14.27;;
13820;SDS011;6981;42.678;23.294;2022-09-09T04:46:02;21.73;;;13.57;;
13820;SDS011;6981;42.678;23.294;2022-09-09T04:48:36;17.80;;;14.17;;
13820;SDS011;6981;42.678;23.294;2022-09-09T04:51:20;21.40;;;14.17;;
13820;SDS011;6981;42.678;23.294;2022-09-09T04:54:05;15.23;;;13.70;;
13820;SDS011;6981;42.678;23.294;2022-09-09T04:59:57;15.87;;;12.07;;
13820;SDS011;6981;42.678;23.294;2022-09-09T05:02:49;19.50;;;13.23;;
13820;SDS011;6981;42.678;23.294;2022-09-09T05:05:34;18.67;;;11.70;;
13820;SDS011;6981;42.678;23.294;2022-09-09T05:08:16;14.97;;;11.33;;
13820;SDS011;6981;42.678;23.294;2022-09-09T05:11:04;13.07;;;10.67;;
13820;SDS011;6981;42.678;23.294;2022-09-09T06:35:05;18.20;;;11.43;;
13820;SDS011;6981;42.678;23.294;2022-09-09T06:37:53;13.48;;;10.77;;
13820;SDS011;6981;42.678;23.294;2022-09-09T06:55:22;12.00;;;10.73;;
13820;SDS011;6981;42.678;23.294;2022-09-09T07:01:14;14.60;;;11.37;;
13820;SDS011;6981;42.678;23.294;2022-09-09T07:03:59;17.03;;;12.27;;
13820;SDS011;6981;42.678;23.294;2022-09-09T07:06:46;20.50;;;11.93;;
13820;SDS011;6981;42.678;23.294;2022-09-09T07:09:33;15.93;;;13.40;;
13820;SDS011;6981;42.678;23.294;2022-09-09T07:28:26;13.10;;;10.75;;
13820;SDS011;6981;42.678;23.294;2022-09-09T07:31:19;16.00;;;10.43;;
13820;SDS011;6981;42.678;23.294;2022-09-09T07:34:04;13.73;;;10.10;;
13820;SDS011;6981;42.678;23.294;2022-09-09T07:36:48;12.48;;;9.45;;
13820;SDS011;6981;42.678;23.294;2022-09-09T07:39:50;15.77;;;11.40;;
13820;SDS011;6981;42.678;23.294;2022-09-09T10:55:41;9.47;;;7.30;;
13820;SDS011;6981;42.678;23.294;2022-09-09T10:58:42;14.10;;;7.80;;
13820;SDS011;6981;42.678;23.294;2022-09-09T11:01:45;13.00;;;8.00;;
13820;SDS011;6981;42.678;23.294;2022-09-09T11:04:34;11.63;;;8.20;;
13820;SDS011;6981;42.678;23.294;2022-09-09T12:57:41;12.05;;;6.25;;
13820;SDS011;6981;42.678;23.294;2022-09-09T13:00:31;12.23;;;7.07;;
13820;SDS011;6981;42.678;23.294;2022-09-09T13:03:20;13.50;;;7.07;;
13820;SDS011;6981;42.678;23.294;2022-09-09T13:09:25;14.88;;;6.75;;
13820;SDS011;6981;42.678;23.294;2022-09-09T22:29:31;11.47;;;8.97;;
13820;SDS011;6981;42.678;23.294;2022-09-09T22:32:18;13.53;;;8.83;;
13820;SDS011;6981;42.678;23.294;2022-09-09T22:35:08;11.67;;;8.07;;
13820;SDS011;6981;42.678;23.294;2022-09-09T22:41:10;9.17;;;8.17;;
13820;SDS011;6981;42.678;23.294;2022-09-09T22:44:00;9.27;;;8.30;;
13820;SDS011;6981;42.678;23.294;2022-09-09T22:56:37;9.37;;;8.43;;
13820;SDS011;6981;42.678;23.294;2022-09-09T22:59:20;10.07;;;7.73;;
13820;SDS011;6981;42.678;23.294;2022-09-09T23:02:05;16.17;;;9.43;;
13820;SDS011;6981;42.678;23.294;2022-09-09T23:05:00;13.87;;;8.43;;
